Battle, United Kingdom
Current Conditions -  °F | °C
As of 3:20 PM on Friday 24 Oct 2014 (Local Time) from EGMD Reporting Station
Moderate Rain Moderate Rain  
Wind Chill: 61°   Ceiling: 300
Heat Index: 61°   Visibility: 1.2mi
Dew Point: 61°   Wind: 20mph
Humidity: 100%   Direction: 220°SW
Pressure: 29.94"   Gusts: NA
Location:  50.92°N, 0.48°E
Report Text: EGMD 241420Z 22017KT 2000 RA BKN003 16/16 Q1014
Loading
Personal Weather Stations






























Interactive Weather Map New forecast layout! Learn more

10-Day Weather Forecast

Advertisements
Track Severe Weather on mobile